createdAt,value
2019-01-11T00:08:20.135Z,3.20
2019-01-11T00:18:24.310Z,3.30
2019-01-11T00:28:27.954Z,3.30
2019-01-11T00:38:31.599Z,3.30
2019-01-11T00:48:35.430Z,3.50
2019-01-11T00:58:39.170Z,3.50
2019-01-11T01:08:42.823Z,3.50
2019-01-11T01:18:46.423Z,3.50
2019-01-11T01:28:50.210Z,3.60
2019-01-11T01:38:54.026Z,3.60
2019-01-11T01:48:57.622Z,3.60
2019-01-11T01:59:01.241Z,3.70
2019-01-11T02:09:08.142Z,3.70
2019-01-11T02:19:11.755Z,3.80
2019-01-11T02:29:15.339Z,3.90
2019-01-11T02:39:18.923Z,4.00
2019-01-11T02:49:22.515Z,4.10
2019-01-11T02:59:26.119Z,4.10
2019-01-11T03:09:29.707Z,4.20
2019-01-11T03:19:33.282Z,4.30
2019-01-11T03:29:36.947Z,4.40
2019-01-11T03:39:40.530Z,4.40
2019-01-11T03:49:44.114Z,4.40
2019-01-11T03:59:47.719Z,4.50
2019-01-11T04:09:51.314Z,4.50
2019-01-11T04:20:01.735Z,4.60
2019-01-11T04:30:00.539Z,4.60
2019-01-11T04:40:11.556Z,4.70
2019-01-11T04:50:17.483Z,4.90
2019-01-11T05:00:22.467Z,5.00
2019-01-11T05:10:26.070Z,5.10
2019-01-11T05:20:30.462Z,5.20
2019-01-11T05:30:34.067Z,5.30
2019-01-11T05:40:37.663Z,5.40
2019-01-11T05:50:41.243Z,5.40
2019-01-11T06:00:44.847Z,5.50
2019-01-11T06:10:48.446Z,5.60
2019-01-11T06:20:52.403Z,5.80
2019-01-11T06:30:55.986Z,5.80
2019-01-11T06:40:59.585Z,5.90
2019-01-11T06:51:03.166Z,6.10
2019-01-11T07:01:06.762Z,6.10
2019-01-11T07:11:10.342Z,6.20
2019-01-11T07:21:13.936Z,6.30
2019-01-11T07:31:21.474Z,6.40
2019-01-11T07:41:25.158Z,6.50
2019-01-11T07:51:28.723Z,6.60
2019-01-11T08:01:35.526Z,6.70
2019-01-11T08:11:39.111Z,6.70
2019-01-11T08:21:42.932Z,6.80
2019-01-11T08:31:46.515Z,6.90
2019-01-11T08:41:50.090Z,7.10
2019-01-11T08:51:53.663Z,7.30
2019-01-11T09:01:57.486Z,7.50
2019-01-11T09:12:01.061Z,7.60
2019-01-11T09:22:04.666Z,7.60
2019-01-11T09:32:07.714Z,7.60
2019-01-11T09:42:11.306Z,7.60
2019-01-11T09:52:14.894Z,7.80
2019-01-11T10:02:39.093Z,7.80
2019-01-11T10:12:42.774Z,7.80
2019-01-11T10:22:46.377Z,7.90
2019-01-11T10:32:49.957Z,7.90
2019-01-11T10:42:53.538Z,8.00
2019-01-11T10:52:57.118Z,8.10
2019-01-11T11:03:00.702Z,8.20
2019-01-11T11:13:04.273Z,8.20
2019-01-11T11:23:07.870Z,8.10
2019-01-11T11:33:11.659Z,8.10
2019-01-11T11:43:15.462Z,8.10
2019-01-11T11:53:19.049Z,8.30
2019-01-11T12:03:22.643Z,8.30
2019-01-11T12:13:26.218Z,8.20
2019-01-11T12:23:30.562Z,8.10
2019-01-11T12:44:38.435Z,8.10
2019-01-11T12:54:42.230Z,8.30
2019-01-11T13:04:45.987Z,8.40
2019-01-11T13:14:49.823Z,8.20
2019-01-11T13:24:53.477Z,8.10
2019-01-11T13:34:57.193Z,8.00
2019-01-11T13:45:01.100Z,8.00
2019-01-11T13:55:04.775Z,8.00
2019-01-11T14:05:08.391Z,8.00
2019-01-11T14:15:11.970Z,7.90
2019-01-11T14:25:15.535Z,8.00
2019-01-11T14:35:19.113Z,7.90
2019-01-11T14:45:22.679Z,7.70
2019-01-11T14:55:26.257Z,7.70
2019-01-11T15:05:29.857Z,7.70
2019-01-11T15:15:33.455Z,7.60
2019-01-11T15:25:37.838Z,7.60
2019-01-11T15:35:41.417Z,7.50
2019-01-11T15:45:44.997Z,7.50
2019-01-11T15:55:50.042Z,7.50
2019-01-11T16:06:19.190Z,7.60
2019-01-11T16:16:36.239Z,7.60
2019-01-11T16:26:39.822Z,7.50
2019-01-11T16:36:43.435Z,7.50
2019-01-11T16:46:47.078Z,7.50
2019-01-11T16:56:51.317Z,7.60
2019-01-11T17:06:55.126Z,7.50
2019-01-11T17:16:58.754Z,7.50
2019-01-11T17:27:02.338Z,7.40
2019-01-11T17:37:05.924Z,7.50
2019-01-11T17:47:15.912Z,7.40
2019-01-11T17:57:19.550Z,7.40
2019-01-11T18:07:23.118Z,7.30
2019-01-11T18:17:26.691Z,7.30
2019-01-11T18:27:30.275Z,7.50
2019-01-11T18:37:41.735Z,7.60
2019-01-11T18:47:45.322Z,7.40
2019-01-11T18:57:48.955Z,7.30
2019-01-11T19:07:52.762Z,7.10
2019-01-11T19:17:56.342Z,7.10
2019-01-11T19:28:00.127Z,7.20
2019-01-11T19:38:03.694Z,7.30
2019-01-11T19:48:07.366Z,7.30
2019-01-11T19:58:10.938Z,7.20
2019-01-11T20:08:14.509Z,7.10
2019-01-11T20:18:18.178Z,7.10
2019-01-11T20:28:21.743Z,7.00
2019-01-11T20:38:25.405Z,7.00
2019-01-11T20:48:28.983Z,6.90
2019-01-11T20:58:32.563Z,6.80
2019-01-11T21:08:36.131Z,6.80
2019-01-11T21:18:39.740Z,6.70
2019-01-11T21:28:43.389Z,6.60
2019-01-11T21:38:46.947Z,6.60
2019-01-11T21:48:50.674Z,6.70
2019-01-11T21:58:54.251Z,6.80
2019-01-11T22:08:57.807Z,6.80
2019-01-11T22:19:01.379Z,6.90
2019-01-11T22:29:04.943Z,6.90
2019-01-11T22:39:08.718Z,6.90
2019-01-11T22:49:12.294Z,6.90
2019-01-11T22:59:17.982Z,6.90
2019-01-11T23:09:24.318Z,7.00
2019-01-11T23:19:28.057Z,7.10
2019-01-11T23:29:31.689Z,7.20
2019-01-11T23:39:35.258Z,7.30
2019-01-11T23:49:38.825Z,7.30
2019-01-11T23:59:42.662Z,7.30
